sensor_id;sensor_type;location;lat;lon;timestamp;temperature;humidity
19279;DHT22;9773;47.062;15.446;2023-02-11T00:00:13;-1.70;96.10
19279;DHT22;9773;47.062;15.446;2023-02-11T00:02:38;-1.70;96.20
19279;DHT22;9773;47.062;15.446;2023-02-11T00:05:05;-1.70;96.10
19279;DHT22;9773;47.062;15.446;2023-02-11T00:07:32;-1.80;96.30
19279;DHT22;9773;47.062;15.446;2023-02-11T00:09:58;-1.80;96.30
19279;DHT22;9773;47.062;15.446;2023-02-11T00:12:24;-1.80;96.30
19279;DHT22;9773;47.062;15.446;2023-02-11T00:14:50;-1.80;96.40
19279;DHT22;9773;47.062;15.446;2023-02-11T00:17:17;-1.80;96.40
19279;DHT22;9773;47.062;15.446;2023-02-11T00:19:42;-1.60;96.30
19279;DHT22;9773;47.062;15.446;2023-02-11T00:22:08;-1.60;96.30
19279;DHT22;9773;47.062;15.446;2023-02-11T00:24:35;-1.60;96.40
19279;DHT22;9773;47.062;15.446;2023-02-11T00:27:01;-1.60;96.40
19279;DHT22;9773;47.062;15.446;2023-02-11T00:29:27;-1.70;96.30
19279;DHT22;9773;47.062;15.446;2023-02-11T00:31:53;-1.70;96.50
19279;DHT22;9773;47.062;15.446;2023-02-11T00:34:19;-1.60;96.50
19279;DHT22;9773;47.062;15.446;2023-02-11T00:36:44;-1.70;96.40
19279;DHT22;9773;47.062;15.446;2023-02-11T00:39:10;-1.70;96.40
19279;DHT22;9773;47.062;15.446;2023-02-11T00:41:36;-1.60;96.60
19279;DHT22;9773;47.062;15.446;2023-02-11T00:44:02;-1.60;96.60
19279;DHT22;9773;47.062;15.446;2023-02-11T00:46:28;-1.70;96.60
19279;DHT22;9773;47.062;15.446;2023-02-11T00:48:54;-1.80;96.60
19279;DHT22;9773;47.062;15.446;2023-02-11T00:51:25;-1.90;96.70
19279;DHT22;9773;47.062;15.446;2023-02-11T00:53:52;-1.70;96.80
19279;DHT22;9773;47.062;15.446;2023-02-11T00:56:18;-1.80;96.60
19279;DHT22;9773;47.062;15.446;2023-02-11T00:58:43;-1.90;96.70
19279;DHT22;9773;47.062;15.446;2023-02-11T01:01:10;-1.90;96.70
19279;DHT22;9773;47.062;15.446;2023-02-11T01:03:37;-1.90;96.90
19279;DHT22;9773;47.062;15.446;2023-02-11T01:06:03;-2.00;96.70
19279;DHT22;9773;47.062;15.446;2023-02-11T01:08:29;-1.90;96.80
19279;DHT22;9773;47.062;15.446;2023-02-11T01:11:00;-1.90;96.80
19279;DHT22;9773;47.062;15.446;2023-02-11T01:13:29;-1.90;96.70
19279;DHT22;9773;47.062;15.446;2023-02-11T01:15:55;-1.90;96.70
19279;DHT22;9773;47.062;15.446;2023-02-11T01:18:21;-1.90;96.60
19279;DHT22;9773;47.062;15.446;2023-02-11T01:20:47;-2.00;96.50
19279;DHT22;9773;47.062;15.446;2023-02-11T01:23:13;-2.10;96.80
19279;DHT22;9773;47.062;15.446;2023-02-11T01:25:38;-2.00;96.80
19279;DHT22;9773;47.062;15.446;2023-02-11T01:28:04;-1.90;96.80
19279;DHT22;9773;47.062;15.446;2023-02-11T01:30:30;-1.90;96.80
19279;DHT22;9773;47.062;15.446;2023-02-11T01:32:56;-1.90;96.70
19279;DHT22;9773;47.062;15.446;2023-02-11T01:35:22;-1.90;96.70
19279;DHT22;9773;47.062;15.446;2023-02-11T01:37:48;-2.00;96.50
19279;DHT22;9773;47.062;15.446;2023-02-11T01:40:16;-2.00;96.60
19279;DHT22;9773;47.062;15.446;2023-02-11T01:42:42;-2.10;96.60
19279;DHT22;9773;47.062;15.446;2023-02-11T01:48:20;-2.20;96.60
19279;DHT22;9773;47.062;15.446;2023-02-11T01:50:49;-2.20;96.70
19279;DHT22;9773;47.062;15.446;2023-02-11T01:53:15;-2.10;96.60
19279;DHT22;9773;47.062;15.446;2023-02-11T01:56:02;-2.10;96.60
19279;DHT22;9773;47.062;15.446;2023-02-11T01:58:49;-2.10;96.60
19279;DHT22;9773;47.062;15.446;2023-02-11T02:01:19;-2.30;96.50
19279;DHT22;9773;47.062;15.446;2023-02-11T02:03:47;-2.30;96.60
19279;DHT22;9773;47.062;15.446;2023-02-11T02:06:26;-2.30;96.80
19279;DHT22;9773;47.062;15.446;2023-02-11T02:08:57;-2.30;96.90
19279;DHT22;9773;47.062;15.446;2023-02-11T02:11:24;-2.30;96.80
19279;DHT22;9773;47.062;15.446;2023-02-11T02:13:50;-2.20;96.80
19279;DHT22;9773;47.062;15.446;2023-02-11T02:16:28;-2.10;96.70
19279;DHT22;9773;47.062;15.446;2023-02-11T02:27:54;-2.10;96.80
19279;DHT22;9773;47.062;15.446;2023-02-11T02:36:31;-2.20;96.80
19279;DHT22;9773;47.062;15.446;2023-02-11T02:39:06;-2.20;96.70
19279;DHT22;9773;47.062;15.446;2023-02-11T02:41:34;-2.30;96.90
19279;DHT22;9773;47.062;15.446;2023-02-11T02:44:01;-2.30;96.70
19279;DHT22;9773;47.062;15.446;2023-02-11T02:46:30;-2.30;96.80
19279;DHT22;9773;47.062;15.446;2023-02-11T02:48:56;-2.20;96.80
19279;DHT22;9773;47.062;15.446;2023-02-11T02:51:46;-2.20;96.90
19279;DHT22;9773;47.062;15.446;2023-02-11T03:02:30;-2.30;96.90
19279;DHT22;9773;47.062;15.446;2023-02-11T03:07:54;-2.30;97.20
19279;DHT22;9773;47.062;15.446;2023-02-11T03:10:22;-2.30;97.20
19279;DHT22;9773;47.062;15.446;2023-02-11T03:12:51;-2.20;97.10
19279;DHT22;9773;47.062;15.446;2023-02-11T03:15:18;-2.20;97.20
19279;DHT22;9773;47.062;15.446;2023-02-11T03:17:48;-2.30;97.20
19279;DHT22;9773;47.062;15.446;2023-02-11T03:20:17;-2.40;97.40
19279;DHT22;9773;47.062;15.446;2023-02-11T03:22:56;-2.50;97.50
19279;DHT22;9773;47.062;15.446;2023-02-11T03:25:29;-2.60;97.60
19279;DHT22;9773;47.062;15.446;2023-02-11T03:28:08;-2.60;97.80
19279;DHT22;9773;47.062;15.446;2023-02-11T03:30:52;-2.60;97.70
19279;DHT22;9773;47.062;15.446;2023-02-11T03:33:29;-2.60;97.70
19279;DHT22;9773;47.062;15.446;2023-02-11T03:36:11;-2.70;97.90
19279;DHT22;9773;47.062;15.446;2023-02-11T03:38:44;-2.70;97.90
19279;DHT22;9773;47.062;15.446;2023-02-11T03:41:13;-2.70;97.90
19279;DHT22;9773;47.062;15.446;2023-02-11T03:43:46;-2.70;97.90
19279;DHT22;9773;47.062;15.446;2023-02-11T03:46:15;-2.60;97.80
19279;DHT22;9773;47.062;15.446;2023-02-11T03:49:05;-2.70;97.80
19279;DHT22;9773;47.062;15.446;2023-02-11T03:51:34;-2.70;97.80
19279;DHT22;9773;47.062;15.446;2023-02-11T03:54:05;-2.60;97.90
19279;DHT22;9773;47.062;15.446;2023-02-11T03:56:35;-2.60;97.80
19279;DHT22;9773;47.062;15.446;2023-02-11T03:59:02;-2.60;97.90
19279;DHT22;9773;47.062;15.446;2023-02-11T04:01:28;-2.50;97.80
19279;DHT22;9773;47.062;15.446;2023-02-11T04:03:54;-2.60;97.80
19279;DHT22;9773;47.062;15.446;2023-02-11T04:06:20;-2.70;97.90
19279;DHT22;9773;47.062;15.446;2023-02-11T04:08:46;-2.70;97.80
19279;DHT22;9773;47.062;15.446;2023-02-11T04:11:11;-2.80;97.80
19279;DHT22;9773;47.062;15.446;2023-02-11T04:13:37;-2.80;98.00
19279;DHT22;9773;47.062;15.446;2023-02-11T04:16:03;-2.70;98.00
19279;DHT22;9773;47.062;15.446;2023-02-11T04:18:29;-2.60;97.80
19279;DHT22;9773;47.062;15.446;2023-02-11T04:20:55;-2.60;97.90
19279;DHT22;9773;47.062;15.446;2023-02-11T04:23:20;-2.60;97.80
19279;DHT22;9773;47.062;15.446;2023-02-11T04:25:47;-2.60;97.70
19279;DHT22;9773;47.062;15.446;2023-02-11T04:28:13;-2.70;97.90
19279;DHT22;9773;47.062;15.446;2023-02-11T04:30:39;-2.70;97.80
19279;DHT22;9773;47.062;15.446;2023-02-11T04:33:04;-2.80;97.90
19279;DHT22;9773;47.062;15.446;2023-02-11T04:35:30;-2.80;97.90
19279;DHT22;9773;47.062;15.446;2023-02-11T04:37:56;-2.70;98.00
19279;DHT22;9773;47.062;15.446;2023-02-11T04:40:22;-2.80;97.90
19279;DHT22;9773;47.062;15.446;2023-02-11T04:42:47;-2.80;97.90
19279;DHT22;9773;47.062;15.446;2023-02-11T04:45:13;-2.80;97.80
19279;DHT22;9773;47.062;15.446;2023-02-11T04:47:39;-2.80;97.80
19279;DHT22;9773;47.062;15.446;2023-02-11T04:50:05;-2.70;97.60
19279;DHT22;9773;47.062;15.446;2023-02-11T04:52:31;-2.80;97.50
19279;DHT22;9773;47.062;15.446;2023-02-11T04:54:56;-2.80;97.40
19279;DHT22;9773;47.062;15.446;2023-02-11T04:57:22;-2.80;97.50
19279;DHT22;9773;47.062;15.446;2023-02-11T04:59:48;-2.80;97.40
19279;DHT22;9773;47.062;15.446;2023-02-11T05:02:14;-2.80;97.50
19279;DHT22;9773;47.062;15.446;2023-02-11T05:04:40;-2.80;97.40
19279;DHT22;9773;47.062;15.446;2023-02-11T05:07:05;-2.90;97.40
19279;DHT22;9773;47.062;15.446;2023-02-11T05:09:31;-2.80;97.50
19279;DHT22;9773;47.062;15.446;2023-02-11T05:11:57;-2.80;97.40
19279;DHT22;9773;47.062;15.446;2023-02-11T05:14:23;-3.00;97.50
19279;DHT22;9773;47.062;15.446;2023-02-11T05:16:49;-3.00;97.50
19279;DHT22;9773;47.062;15.446;2023-02-11T05:19:14;-2.90;97.40
19279;DHT22;9773;47.062;15.446;2023-02-11T05:21:40;-3.00;97.40
19279;DHT22;9773;47.062;15.446;2023-02-11T05:24:07;-3.00;97.40
19279;DHT22;9773;47.062;15.446;2023-02-11T05:26:32;-3.10;97.40
19279;DHT22;9773;47.062;15.446;2023-02-11T05:28:58;-3.20;97.50
19279;DHT22;9773;47.062;15.446;2023-02-11T05:31:24;-3.20;97.70
19279;DHT22;9773;47.062;15.446;2023-02-11T05:33:50;-3.20;97.60
19279;DHT22;9773;47.062;15.446;2023-02-11T05:36:16;-3.30;97.70
19279;DHT22;9773;47.062;15.446;2023-02-11T05:38:42;-3.30;97.80
19279;DHT22;9773;47.062;15.446;2023-02-11T05:41:08;-3.20;97.70
19279;DHT22;9773;47.062;15.446;2023-02-11T05:43:34;-3.20;97.70
19279;DHT22;9773;47.062;15.446;2023-02-11T05:46:02;-3.30;97.60
19279;DHT22;9773;47.062;15.446;2023-02-11T05:48:28;-3.20;97.80
19279;DHT22;9773;47.062;15.446;2023-02-11T05:50:53;-3.10;97.60
19279;DHT22;9773;47.062;15.446;2023-02-11T05:53:19;-3.10;97.70
19279;DHT22;9773;47.062;15.446;2023-02-11T05:55:45;-3.10;97.70
19279;DHT22;9773;47.062;15.446;2023-02-11T05:58:11;-3.00;97.80
19279;DHT22;9773;47.062;15.446;2023-02-11T06:00:36;-3.00;97.70
19279;DHT22;9773;47.062;15.446;2023-02-11T06:03:03;-3.00;97.60
19279;DHT22;9773;47.062;15.446;2023-02-11T06:05:29;-3.00;97.70
19279;DHT22;9773;47.062;15.446;2023-02-11T06:07:55;-3.00;97.80
19279;DHT22;9773;47.062;15.446;2023-02-11T06:10:21;-3.00;97.80
19279;DHT22;9773;47.062;15.446;2023-02-11T06:12:47;-3.00;97.90
19279;DHT22;9773;47.062;15.446;2023-02-11T06:15:12;-3.00;97.80
19279;DHT22;9773;47.062;15.446;2023-02-11T06:17:38;-2.90;97.90
19279;DHT22;9773;47.062;15.446;2023-02-11T06:20:06;-2.90;97.90
19279;DHT22;9773;47.062;15.446;2023-02-11T06:22:33;-2.90;98.00
19279;DHT22;9773;47.062;15.446;2023-02-11T06:24:59;-2.90;97.90
19279;DHT22;9773;47.062;15.446;2023-02-11T06:27:25;-2.80;97.90
19279;DHT22;9773;47.062;15.446;2023-02-11T06:29:50;-2.80;98.00
19279;DHT22;9773;47.062;15.446;2023-02-11T06:32:19;-2.90;98.10
19279;DHT22;9773;47.062;15.446;2023-02-11T06:34:45;-2.90;98.20
19279;DHT22;9773;47.062;15.446;2023-02-11T06:37:11;-2.80;98.20
19279;DHT22;9773;47.062;15.446;2023-02-11T06:39:37;-2.70;98.10
19279;DHT22;9773;47.062;15.446;2023-02-11T06:42:03;-2.60;98.10
19279;DHT22;9773;47.062;15.446;2023-02-11T06:44:28;-2.60;98.20
19279;DHT22;9773;47.062;15.446;2023-02-11T06:46:54;-2.50;98.10
19279;DHT22;9773;47.062;15.446;2023-02-11T06:49:20;-2.50;98.00
19279;DHT22;9773;47.062;15.446;2023-02-11T06:51:46;-2.30;98.10
19279;DHT22;9773;47.062;15.446;2023-02-11T06:54:12;-2.30;97.80
19279;DHT22;9773;47.062;15.446;2023-02-11T06:56:39;-2.30;97.90
19279;DHT22;9773;47.062;15.446;2023-02-11T06:59:05;-2.30;97.90
19279;DHT22;9773;47.062;15.446;2023-02-11T07:01:31;-2.30;97.70
19279;DHT22;9773;47.062;15.446;2023-02-11T07:03:57;-2.20;97.70
19279;DHT22;9773;47.062;15.446;2023-02-11T07:06:25;-2.10;97.70
19279;DHT22;9773;47.062;15.446;2023-02-11T07:08:53;-2.20;97.70
19279;DHT22;9773;47.062;15.446;2023-02-11T07:11:28;-2.10;97.80
19279;DHT22;9773;47.062;15.446;2023-02-11T07:13:58;-2.00;97.70
19279;DHT22;9773;47.062;15.446;2023-02-11T07:16:25;-2.00;97.70
19279;DHT22;9773;47.062;15.446;2023-02-11T07:18:50;-1.90;97.70
19279;DHT22;9773;47.062;15.446;2023-02-11T07:21:19;-1.90;97.80
19279;DHT22;9773;47.062;15.446;2023-02-11T07:23:45;-1.80;97.70
19279;DHT22;9773;47.062;15.446;2023-02-11T07:26:13;-1.80;97.60
19279;DHT22;9773;47.062;15.446;2023-02-11T07:28:40;-1.80;97.60
19279;DHT22;9773;47.062;15.446;2023-02-11T07:31:10;-1.90;97.70
19279;DHT22;9773;47.062;15.446;2023-02-11T07:33:36;-1.90;97.70
19279;DHT22;9773;47.062;15.446;2023-02-11T07:36:04;-1.90;97.70
19279;DHT22;9773;47.062;15.446;2023-02-11T07:38:31;-1.70;97.70
19279;DHT22;9773;47.062;15.446;2023-02-11T07:41:06;-1.80;97.60
19279;DHT22;9773;47.062;15.446;2023-02-11T07:43:33;-1.80;97.50
19279;DHT22;9773;47.062;15.446;2023-02-11T07:46:05;-1.70;97.60
19279;DHT22;9773;47.062;15.446;2023-02-11T07:48:32;-1.70;97.50
19279;DHT22;9773;47.062;15.446;2023-02-11T07:51:17;-1.70;97.50
19279;DHT22;9773;47.062;15.446;2023-02-11T07:53:43;-1.50;97.50
19279;DHT22;9773;47.062;15.446;2023-02-11T07:56:10;-1.50;97.50
19279;DHT22;9773;47.062;15.446;2023-02-11T07:58:37;-1.50;97.10
19279;DHT22;9773;47.062;15.446;2023-02-11T08:01:04;-1.30;97.20
19279;DHT22;9773;47.062;15.446;2023-02-11T08:03:32;-1.30;97.10
19279;DHT22;9773;47.062;15.446;2023-02-11T08:06:01;-1.20;97.10
19279;DHT22;9773;47.062;15.446;2023-02-11T08:08:27;-1.20;97.10
19279;DHT22;9773;47.062;15.446;2023-02-11T08:10:53;-1.20;97.10
19279;DHT22;9773;47.062;15.446;2023-02-11T08:13:19;-1.10;97.30
19279;DHT22;9773;47.062;15.446;2023-02-11T08:15:44;-1.00;97.20
19279;DHT22;9773;47.062;15.446;2023-02-11T08:18:10;-1.00;97.20
19279;DHT22;9773;47.062;15.446;2023-02-11T08:20:36;-1.00;97.20
19279;DHT22;9773;47.062;15.446;2023-02-11T08:23:04;-0.90;96.90
19279;DHT22;9773;47.062;15.446;2023-02-11T08:25:30;-0.80;96.80
19279;DHT22;9773;47.062;15.446;2023-02-11T08:27:55;-0.70;96.60
19279;DHT22;9773;47.062;15.446;2023-02-11T08:30:21;-0.60;96.70
19279;DHT22;9773;47.062;15.446;2023-02-11T08:32:47;-0.60;96.70
19279;DHT22;9773;47.062;15.446;2023-02-11T08:35:13;-0.50;96.80
19279;DHT22;9773;47.062;15.446;2023-02-11T08:37:39;-0.40;96.90
19279;DHT22;9773;47.062;15.446;2023-02-11T08:40:05;-0.20;96.80
19279;DHT22;9773;47.062;15.446;2023-02-11T08:42:31;0.00;96.70
19279;DHT22;9773;47.062;15.446;2023-02-11T08:44:57;0.10;96.80
19279;DHT22;9773;47.062;15.446;2023-02-11T08:47:22;0.20;96.70
19279;DHT22;9773;47.062;15.446;2023-02-11T08:49:48;0.30;96.60
19279;DHT22;9773;47.062;15.446;2023-02-11T08:52:14;0.50;96.60
19279;DHT22;9773;47.062;15.446;2023-02-11T08:54:40;0.60;96.50
19279;DHT22;9773;47.062;15.446;2023-02-11T08:57:05;0.70;96.40
19279;DHT22;9773;47.062;15.446;2023-02-11T08:59:31;0.80;96.40
19279;DHT22;9773;47.062;15.446;2023-02-11T09:01:57;0.80;96.10
19279;DHT22;9773;47.062;15.446;2023-02-11T09:04:23;0.90;96.20
19279;DHT22;9773;47.062;15.446;2023-02-11T09:06:49;0.90;96.00
19279;DHT22;9773;47.062;15.446;2023-02-11T09:09:15;1.00;96.20
19279;DHT22;9773;47.062;15.446;2023-02-11T09:11:42;1.10;95.70
19279;DHT22;9773;47.062;15.446;2023-02-11T09:14:16;1.20;95.60
19279;DHT22;9773;47.062;15.446;2023-02-11T09:16:42;1.30;95.60
19279;DHT22;9773;47.062;15.446;2023-02-11T09:19:08;1.40;95.40
19279;DHT22;9773;47.062;15.446;2023-02-11T09:21:34;1.60;95.30
19279;DHT22;9773;47.062;15.446;2023-02-11T09:24:00;1.80;95.40
19279;DHT22;9773;47.062;15.446;2023-02-11T09:26:28;1.90;95.50
19279;DHT22;9773;47.062;15.446;2023-02-11T09:28:55;2.10;95.50
19279;DHT22;9773;47.062;15.446;2023-02-11T09:31:23;2.30;95.50
19279;DHT22;9773;47.062;15.446;2023-02-11T09:33:52;2.60;94.90
19279;DHT22;9773;47.062;15.446;2023-02-11T09:36:20;2.70;94.80
19279;DHT22;9773;47.062;15.446;2023-02-11T09:38:47;2.70;95.00
19279;DHT22;9773;47.062;15.446;2023-02-11T09:43:54;2.70;94.90
19279;DHT22;9773;47.062;15.446;2023-02-11T09:46:22;2.80;95.00
19279;DHT22;9773;47.062;15.446;2023-02-11T09:48:50;2.90;94.90
19279;DHT22;9773;47.062;15.446;2023-02-11T09:52:01;2.90;94.50
19279;DHT22;9773;47.062;15.446;2023-02-11T09:54:33;2.80;94.60
19279;DHT22;9773;47.062;15.446;2023-02-11T09:57:00;2.90;94.70
19279;DHT22;9773;47.062;15.446;2023-02-11T09:59:26;2.90;94.70
19279;DHT22;9773;47.062;15.446;2023-02-11T10:02:03;2.90;94.50
19279;DHT22;9773;47.062;15.446;2023-02-11T10:18:28;3.10;94.10
19279;DHT22;9773;47.062;15.446;2023-02-11T10:21:23;2.80;94.30
19279;DHT22;9773;47.062;15.446;2023-02-11T10:23:58;2.80;94.30
19279;DHT22;9773;47.062;15.446;2023-02-11T10:26:27;2.80;94.40
19279;DHT22;9773;47.062;15.446;2023-02-11T10:28:59;2.90;94.40
19279;DHT22;9773;47.062;15.446;2023-02-11T10:31:33;3.00;94.00
19279;DHT22;9773;47.062;15.446;2023-02-11T10:34:04;3.00;94.00
19279;DHT22;9773;47.062;15.446;2023-02-11T10:36:37;3.00;93.90
19279;DHT22;9773;47.062;15.446;2023-02-11T10:39:20;3.00;93.70
19279;DHT22;9773;47.062;15.446;2023-02-11T10:41:58;3.10;93.80
19279;DHT22;9773;47.062;15.446;2023-02-11T10:47:10;3.10;93.30
19279;DHT22;9773;47.062;15.446;2023-02-11T10:49:40;3.20;93.10
19279;DHT22;9773;47.062;15.446;2023-02-11T10:55:03;3.40;92.60
19279;DHT22;9773;47.062;15.446;2023-02-11T10:57:39;3.50;92.40
19279;DHT22;9773;47.062;15.446;2023-02-11T11:00:35;3.80;92.40
19279;DHT22;9773;47.062;15.446;2023-02-11T11:03:06;4.00;92.50
19279;DHT22;9773;47.062;15.446;2023-02-11T11:05:59;4.20;92.60
19279;DHT22;9773;47.062;15.446;2023-02-11T11:11:09;4.70;92.20
19279;DHT22;9773;47.062;15.446;2023-02-11T11:13:37;4.90;92.00
19279;DHT22;9773;47.062;15.446;2023-02-11T11:18:46;5.20;91.50
19279;DHT22;9773;47.062;15.446;2023-02-11T11:21:19;5.30;91.50
19279;DHT22;9773;47.062;15.446;2023-02-11T11:23:59;5.40;91.30
19279;DHT22;9773;47.062;15.446;2023-02-11T11:26:48;5.50;90.70
19279;DHT22;9773;47.062;15.446;2023-02-11T11:29:19;5.50;90.80
19279;DHT22;9773;47.062;15.446;2023-02-11T11:32:11;5.50;90.80
19279;DHT22;9773;47.062;15.446;2023-02-11T11:34:40;5.30;91.20
19279;DHT22;9773;47.062;15.446;2023-02-11T11:37:33;5.20;91.60
19279;DHT22;9773;47.062;15.446;2023-02-11T11:43:02;4.80;92.50
19279;DHT22;9773;47.062;15.446;2023-02-11T11:45:28;4.60;92.80
19279;DHT22;9773;47.062;15.446;2023-02-11T11:48:21;4.50;93.00
19279;DHT22;9773;47.062;15.446;2023-02-11T11:53:50;4.30;93.70
19279;DHT22;9773;47.062;15.446;2023-02-11T11:56:23;4.20;93.40
19279;DHT22;9773;47.062;15.446;2023-02-11T11:58:50;4.20;93.20
19279;DHT22;9773;47.062;15.446;2023-02-11T12:18:32;4.40;92.40
19279;DHT22;9773;47.062;15.446;2023-02-11T12:21:33;4.50;92.20
19279;DHT22;9773;47.062;15.446;2023-02-11T12:30:06;5.20;91.80
19279;DHT22;9773;47.062;15.446;2023-02-11T12:39:05;5.80;90.80
19279;DHT22;9773;47.062;15.446;2023-02-11T12:47:29;6.20;90.20
19279;DHT22;9773;47.062;15.446;2023-02-11T12:50:39;6.30;89.60
19279;DHT22;9773;47.062;15.446;2023-02-11T12:55:43;6.50;89.00
19279;DHT22;9773;47.062;15.446;2023-02-11T12:58:15;6.50;87.70
19279;DHT22;9773;47.062;15.446;2023-02-11T13:00:57;6.60;87.90
19279;DHT22;9773;47.062;15.446;2023-02-11T13:03:34;6.70;88.80
19279;DHT22;9773;47.062;15.446;2023-02-11T13:06:13;6.70;87.50
19279;DHT22;9773;47.062;15.446;2023-02-11T13:08:51;6.80;87.50
19279;DHT22;9773;47.062;15.446;2023-02-11T13:11:33;6.80;87.70
19279;DHT22;9773;47.062;15.446;2023-02-11T13:16:43;6.90;87.20
19279;DHT22;9773;47.062;15.446;2023-02-11T13:19:33;6.90;87.00
19279;DHT22;9773;47.062;15.446;2023-02-11T13:22:15;6.90;86.10
19279;DHT22;9773;47.062;15.446;2023-02-11T13:30:29;6.80;84.80
19279;DHT22;9773;47.062;15.446;2023-02-11T13:38:04;6.60;85.20
19279;DHT22;9773;47.062;15.446;2023-02-11T13:43:05;6.80;84.70
19279;DHT22;9773;47.062;15.446;2023-02-11T13:45:45;7.00;84.60
19279;DHT22;9773;47.062;15.446;2023-02-11T13:48:19;7.10;84.90
19279;DHT22;9773;47.062;15.446;2023-02-11T13:50:48;7.20;84.30
19279;DHT22;9773;47.062;15.446;2023-02-11T13:53:16;7.20;83.20
19279;DHT22;9773;47.062;15.446;2023-02-11T13:55:51;7.20;83.40
19279;DHT22;9773;47.062;15.446;2023-02-11T14:00:48;7.10;81.60
19279;DHT22;9773;47.062;15.446;2023-02-11T14:03:27;7.10;81.20
19279;DHT22;9773;47.062;15.446;2023-02-11T14:06:21;7.20;80.30
19279;DHT22;9773;47.062;15.446;2023-02-11T14:11:50;7.20;78.70
19279;DHT22;9773;47.062;15.446;2023-02-11T14:17:28;7.30;77.70
19279;DHT22;9773;47.062;15.446;2023-02-11T14:19:56;7.30;78.80
19279;DHT22;9773;47.062;15.446;2023-02-11T14:22:29;7.40;77.80
19279;DHT22;9773;47.062;15.446;2023-02-11T14:24:57;7.30;77.60
19279;DHT22;9773;47.062;15.446;2023-02-11T14:27:43;7.30;76.30
19279;DHT22;9773;47.062;15.446;2023-02-11T14:30:22;7.20;76.60
19279;DHT22;9773;47.062;15.446;2023-02-11T14:35:54;7.10;78.10
19279;DHT22;9773;47.062;15.446;2023-02-11T14:38:51;7.10;78.40
19279;DHT22;9773;47.062;15.446;2023-02-11T14:41:29;7.20;78.40
19279;DHT22;9773;47.062;15.446;2023-02-11T14:43:59;7.00;78.80
19279;DHT22;9773;47.062;15.446;2023-02-11T14:46:30;6.90;79.00
19279;DHT22;9773;47.062;15.446;2023-02-11T14:49:02;6.90;78.70
19279;DHT22;9773;47.062;15.446;2023-02-11T14:51:35;6.80;78.70
19279;DHT22;9773;47.062;15.446;2023-02-11T14:54:18;6.80;79.10
19279;DHT22;9773;47.062;15.446;2023-02-11T14:57:17;6.80;78.70
19279;DHT22;9773;47.062;15.446;2023-02-11T14:59:58;6.80;78.60
19279;DHT22;9773;47.062;15.446;2023-02-11T15:02:36;7.00;77.30
19279;DHT22;9773;47.062;15.446;2023-02-11T15:05:32;7.00;77.70
19279;DHT22;9773;47.062;15.446;2023-02-11T15:08:01;7.10;77.50
19279;DHT22;9773;47.062;15.446;2023-02-11T15:13:03;6.90;78.00
19279;DHT22;9773;47.062;15.446;2023-02-11T15:15:30;6.90;77.80
19279;DHT22;9773;47.062;15.446;2023-02-11T15:17:58;7.00;78.20
19279;DHT22;9773;47.062;15.446;2023-02-11T15:20:28;7.10;78.60
19279;DHT22;9773;47.062;15.446;2023-02-11T15:23:06;7.00;78.60
19279;DHT22;9773;47.062;15.446;2023-02-11T15:25:33;6.90;79.40
19279;DHT22;9773;47.062;15.446;2023-02-11T15:28:25;6.90;79.80
19279;DHT22;9773;47.062;15.446;2023-02-11T15:31:16;6.80;80.60
19279;DHT22;9773;47.062;15.446;2023-02-11T15:33:43;6.70;80.30
19279;DHT22;9773;47.062;15.446;2023-02-11T15:36:11;6.70;80.00
19279;DHT22;9773;47.062;15.446;2023-02-11T15:38:38;6.60;80.00
19279;DHT22;9773;47.062;15.446;2023-02-11T15:43:50;6.60;80.20
19279;DHT22;9773;47.062;15.446;2023-02-11T15:46:19;6.60;80.10
19279;DHT22;9773;47.062;15.446;2023-02-11T15:48:55;6.60;80.90
19279;DHT22;9773;47.062;15.446;2023-02-11T15:51:38;6.50;80.40
19279;DHT22;9773;47.062;15.446;2023-02-11T15:54:25;6.50;80.60
19279;DHT22;9773;47.062;15.446;2023-02-11T15:57:00;6.40;81.00
19279;DHT22;9773;47.062;15.446;2023-02-11T15:59:39;6.40;81.30
19279;DHT22;9773;47.062;15.446;2023-02-11T16:02:18;6.30;81.60
19279;DHT22;9773;47.062;15.446;2023-02-11T16:05:06;6.30;82.30
19279;DHT22;9773;47.062;15.446;2023-02-11T16:07:54;6.30;81.50
19279;DHT22;9773;47.062;15.446;2023-02-11T16:10:28;6.30;81.60
19279;DHT22;9773;47.062;15.446;2023-02-11T16:12:58;6.20;82.10
19279;DHT22;9773;47.062;15.446;2023-02-11T16:15:40;6.10;82.30
19279;DHT22;9773;47.062;15.446;2023-02-11T16:18:29;6.10;82.80
19279;DHT22;9773;47.062;15.446;2023-02-11T16:20:56;6.00;82.30
19279;DHT22;9773;47.062;15.446;2023-02-11T16:28:48;5.80;82.50
19279;DHT22;9773;47.062;15.446;2023-02-11T16:31:14;5.80;82.70
19279;DHT22;9773;47.062;15.446;2023-02-11T16:33:40;5.70;83.60
19279;DHT22;9773;47.062;15.446;2023-02-11T16:36:15;5.60;83.90
19279;DHT22;9773;47.062;15.446;2023-02-11T16:38:44;5.50;84.50
19279;DHT22;9773;47.062;15.446;2023-02-11T16:41:10;5.40;85.00
19279;DHT22;9773;47.062;15.446;2023-02-11T16:43:37;5.30;85.20
19279;DHT22;9773;47.062;15.446;2023-02-11T16:46:04;5.20;85.00
19279;DHT22;9773;47.062;15.446;2023-02-11T16:48:31;5.20;85.80
19279;DHT22;9773;47.062;15.446;2023-02-11T16:50:57;5.10;86.00
19279;DHT22;9773;47.062;15.446;2023-02-11T16:53:24;5.10;86.10
19279;DHT22;9773;47.062;15.446;2023-02-11T16:55:52;5.00;86.50
19279;DHT22;9773;47.062;15.446;2023-02-11T16:58:18;5.00;86.70
19279;DHT22;9773;47.062;15.446;2023-02-11T17:00:47;4.90;87.20
19279;DHT22;9773;47.062;15.446;2023-02-11T17:03:20;4.90;87.50
19279;DHT22;9773;47.062;15.446;2023-02-11T17:05:48;4.90;87.60
19279;DHT22;9773;47.062;15.446;2023-02-11T17:08:14;4.80;87.30
19279;DHT22;9773;47.062;15.446;2023-02-11T17:10:41;4.80;87.50
19279;DHT22;9773;47.062;15.446;2023-02-11T17:13:07;4.80;88.10
19279;DHT22;9773;47.062;15.446;2023-02-11T17:15:33;4.70;88.00
19279;DHT22;9773;47.062;15.446;2023-02-11T17:18:00;4.70;88.30
19279;DHT22;9773;47.062;15.446;2023-02-11T17:20:28;4.60;88.70
19279;DHT22;9773;47.062;15.446;2023-02-11T17:22:54;4.60;88.70
19279;DHT22;9773;47.062;15.446;2023-02-11T17:25:20;4.60;88.60
19279;DHT22;9773;47.062;15.446;2023-02-11T17:27:50;4.60;88.60
19279;DHT22;9773;47.062;15.446;2023-02-11T17:30:19;4.60;88.60
19279;DHT22;9773;47.062;15.446;2023-02-11T17:32:48;4.60;88.80
19279;DHT22;9773;47.062;15.446;2023-02-11T17:35:14;4.50;89.10
19279;DHT22;9773;47.062;15.446;2023-02-11T17:37:40;4.50;89.20
19279;DHT22;9773;47.062;15.446;2023-02-11T17:40:07;4.50;89.10
19279;DHT22;9773;47.062;15.446;2023-02-11T17:42:35;4.50;89.30
19279;DHT22;9773;47.062;15.446;2023-02-11T17:45:01;4.50;89.50
19279;DHT22;9773;47.062;15.446;2023-02-11T17:47:29;4.40;89.50
19279;DHT22;9773;47.062;15.446;2023-02-11T17:49:56;4.40;89.80
19279;DHT22;9773;47.062;15.446;2023-02-11T17:52:22;4.50;89.50
19279;DHT22;9773;47.062;15.446;2023-02-11T17:54:49;4.60;89.40
19279;DHT22;9773;47.062;15.446;2023-02-11T17:57:16;4.60;89.00
19279;DHT22;9773;47.062;15.446;2023-02-11T17:59:42;4.50;88.90
19279;DHT22;9773;47.062;15.446;2023-02-11T18:02:11;4.50;89.10
19279;DHT22;9773;47.062;15.446;2023-02-11T18:04:37;4.40;89.20
19279;DHT22;9773;47.062;15.446;2023-02-11T18:07:05;4.30;89.50
19279;DHT22;9773;47.062;15.446;2023-02-11T18:09:36;4.30;89.80
19279;DHT22;9773;47.062;15.446;2023-02-11T18:12:03;4.20;90.00
19279;DHT22;9773;47.062;15.446;2023-02-11T18:14:29;4.20;90.00